McFarland, California
Current Conditions -  °F | °C
As of 3:54 PM on Friday 24 Oct 2014 (Local Time) from KBFL Reporting Station
Haze Haze  
Wind Chill: 83°   Ceiling: Unl
Heat Index: 83°   Visibility: 5mi
Dew Point: 48°   Wind: 8mph
Humidity: 29%   Direction: 280°W
Pressure: 29.88"   Gusts: NA
Location:  35.68°N, 119.22°W
Report Text: KBFL 242254Z 28007KT 5SM HZ CLR 28/09 A2988 RMK AO2 SLP112 T02830089
Loading
Personal Weather Stations






























Interactive Weather Map
Tropical Storm Tracking
New forecast layout! Learn more

10-Day Weather Forecast

Advertisements
Track Severe Weather on mobile